Canyonlands National Park, UT

5:11 PM MST on February 13, 2016 (GMT -0700)
Moab | | Change Station
CLOSE
Current Station
Personal Weather Station
Location: Moab, UT
Elevation: 4239 ft
Nearby Weather Stations

Elev 4239 ft 38.55 °N, 109.52 °W | Updated 12 minutes ago

Partly Cloudy
Partly Cloudy
51.4 °F
Feels Like 51.4 °F
N
0.0
Wind Variable Wind from ESE
Gusts 0.0 mph

Today
High -- | Low -- °F
--% Chance of Precip.
Yesterday
High -- | Low -- °F
Precip. -- in
Pressure 30.20 in
Visibility 10.0 miles
Clouds Clear
Dew Point 36 °F
Humidity 55%
Rainfall 0.00 in
Snow Depth Not available.
7:11 AM 5:53 PM
Waxing Crescent, 35% visible
METAR KCNY 132353Z AUTO 34004KT 10SM CLR 08/02 A3017 RMK AO2 SLP225 T00830022 10094 20033 55009
Pressure 30.20 in
Visibility 10.0 miles
Clouds Clear
Dew Point 36 °F
Humidity 55%
Rainfall 0.00 in
Snow Depth Not available.
7:11 AM 5:53 PM
Waxing Crescent, 35% visible
METAR KCNY 132353Z AUTO 34004KT 10SM CLR 08/02 A3017 RMK AO2 SLP225 T00830022 10094 20033 55009

10-Day Weather Forecast

Almanac

Astronomy

Feb. 13, 2016 Rise Set
Actual Time
Civil Twilight
Nautical Twilight
Astronomical Twilight
Moon
Length of Visible Light
Length of Day
Tomorrow will be .
, % of the Moon is Illuminated

Today's Extremes

State Highs State Lows

Community

WunderPhotos

Upload Photos

1,892,709 photos uploaded!

WunderBlog® & News

Nearby

Air Quality

  Air Quality AQ Index Pollutant
Not available.

Snow Depth

Station Depth Elevation

Earthquake Activity

City Distance Mag. Time & Date
Minimum magnitude displayed is 2.5.

Coastal Water Temperatures

Place Temperature

Stations

Nearby Weather Stations

Station Location Temp. Windchill Dew Point Humidity Wind Precip. Elev Updated Type
                   

Watches & Warnings

There are currently no watches in effect.